Victoria, IL (61485)

9:10 PM CST on February 05, 2016 (GMT -0600)
Collister Farms | | Change Station
CLOSE
Current Station
Personal Weather Station
Location: La Fayette, IL
Elevation: 751 ft
Nearby Weather Stations

Elev 751 ft 41.10 °N, 90.00 °W | Updated 4 minutes ago

Mostly Cloudy
Mostly Cloudy
26.1 °F
Feels Like 22 °F
N
3.7
Wind Variable Wind from South

Today
High -- | Low -- °F
--% Chance of Precip.
Yesterday
High -- | Low -- °F
Precip. -- in
Pressure 30.33 in
Visibility 10.0 miles
Clouds Mostly Cloudy 8000 ft
Windchill 22 °F
Dew Point 22 °F
Humidity 85%
Rainfall 0.00 in
Snow Depth Not available.
7:07 AM 5:21 PM
Waning Crescent, 8% visible
METAR KGBG 060255Z AUTO 15003KT 10SM BKN080 M03/M05 A3033 RMK AO2 T10301051
Pressure 30.33 in
Visibility 10.0 miles
Clouds Mostly Cloudy 8000 ft
Windchill 22 °F
Dew Point 22 °F
Humidity 85%
Rainfall 0.00 in
Snow Depth Not available.
7:07 AM 5:21 PM
Waning Crescent, 8% visible
METAR KGBG 060255Z AUTO 15003KT 10SM BKN080 M03/M05 A3033 RMK AO2 T10301051

10-Day Weather Forecast

Almanac

Astronomy

Feb. 05, 2016 Rise Set
Actual Time
Civil Twilight
Nautical Twilight
Astronomical Twilight
Moon
Length of Visible Light
Length of Day
Tomorrow will be .
, % of the Moon is Illuminated

Today's Extremes

State Highs State Lows

Community

WunderPhotos

Upload Photos

1,890,915 photos uploaded!

WunderBlog® & News

Nearby

Air Quality

  Air Quality AQ Index Pollutant
Not available.

Snow Depth

Station Depth Elevation

Earthquake Activity

City Distance Mag. Time & Date
Minimum magnitude displayed is 2.5.

Coastal Water Temperatures

Place Temperature

Stations

Nearby Weather Stations

Station Location Temp. Windchill Dew Point Humidity Wind Precip. Elev Updated Type
                   

Watches & Warnings

There are currently no watches in effect.